Hingham, Wisconsin
Current Conditions -  °F | °C
As of 11:53 PM on Monday 20 Oct 2014 (Local Time) from KSBM Reporting Station
Overcast Overcast  
Wind Chill: 43°   Ceiling: 5000
Heat Index: 47°   Visibility: 10mi
Dew Point: 41°   Wind: 8mph
Humidity: 80%   Direction: 350°N
Pressure: 30.02"   Gusts: NA
Location:  43.64°N, 87.91°W
Report Text: KSBM 210453Z AUTO 35007KT 10SM OVC050 08/05 A3002 RMK AO2 SLP167 T00830050
Loading
Personal Weather Stations






























Interactive Weather Map
Tropical Storm Tracking
New forecast layout! Learn more

10-Day Weather Forecast

Advertisements
Track Severe Weather on mobile